KOLV/OLV METAR and TAF weather

Enter ICAO airport designator
Station Type Date Time Source
KOLV METAR 2022/11/30 15:50 UTC NOAA

KOLV 301550Z 32010KT 10SM CLR 05/M03 A3034


Station Type Date Time Source
KOLV Decoded METAR 2022/11/30 15:50 UTC NOAA

Olive Branch, Olive Branch Airport, MS, United States (KOLV) 34-58-44N 089-47-13W
Nov 30, 2022 - 10:50 AM EST / 2022.11.30 1550 UTC
Wind: from the NW (320 degrees) at 12 MPH (10 KT):0
Visibility: 10 mile(s):0
Sky conditions: clear
Temperature: 41 F (5 C)
Dew Point: 26 F (-3 C)
Relative Humidity: 56%
Pressure (altimeter): 30.34 in. Hg (1027 hPa)
ob: KOLV 301550Z 32010KT 10SM CLR 05/M03 A3034
cycle: 16

Station Type Date Time Source
KOLV TAF UTC NOAA

Error!

Example: see airport list